2005 LONGWANG (2005268N19146)


On this page: IBTrACS data - Map and Plots - Positions - Intensities - Original source data

Summary

Start Sep 25
End Oct 3
Basin WP
LMI 125 kt
Sources jtwc_wp
tokyo
cma
hko
In WMO? Yes
Previous storm 2005 NORMA (EP)
Previous in basin 2005 SAOLA (WP)
Concurrent storms 2005 JOVA (EP)
2005 KENNETH (EP)
2005 RITA (NA)
2005 DAMRCY (WP)
2005 SAOLA (WP)
2005 NORMA (EP)
2005 LONGWANG (WP)
2005 OTIS (EP)
2005 NINETEEN (NA)
2005 MISSING (NI)
2005 STAN (NA)
Next in basin Missing
Next storm 2005 OTIS (EP)

top of page IBTrACS Data: File Access

top of page HURSAT Data: File Access

Image of storm

top of page Plots:

Map of storm track will not appear if FTP is down
Time series of cyclone Maximum Sustained Wind will not appear if FTP is down
Time series of cyclone Minimum Central Pressure will not appear if FTP is down

top of page Track Data:Position

jtwc_wp tokyo cma hko
Date Lat Lon Lat Lon Lat Lon Lat Lon
2005-09-25 00:00:00 18.7 146.1
2005-09-25 06:00:00 19.1 145.5 18.9 145.3 18.9 145.3
2005-09-25 12:00:00 19.2 144.8 19.0 144.6 19.0 144.6
2005-09-25 18:00:00 19.4 144.1 19.2 144.1 19.2 144.1
2005-09-26 00:00:00 19.6 143.4 19.6 143.5 19.6 143.5 19.6 143.5
2005-09-26 06:00:00 20.1 142.8 20.0 143.1 20.0 143.1 20.0 143.1
2005-09-26 12:00:00 20.5 142.2 20.3 142.4 20.3 142.4 20.3 142.5
2005-09-26 18:00:00 20.9 141.6 20.9 141.7 20.9 141.7 20.9 141.7
2005-09-27 00:00:00 21.4 141.0 21.5 141.0 21.5 141.0 21.4 141.1
2005-09-27 06:00:00 21.7 140.1 21.7 140.1 21.7 140.1 21.7 140.1
2005-09-27 12:00:00 21.9 139.2 22.0 139.2 22.0 139.2 22.0 139.2
2005-09-27 18:00:00 22.1 138.3 22.1 138.4 22.1 138.4 22.1 138.4
2005-09-28 00:00:00 22.3 137.5 22.3 137.5 22.3 137.5 22.3 137.5
2005-09-28 06:00:00 22.5 136.7 22.5 136.7 22.4 136.7 22.4 136.8
2005-09-28 12:00:00 22.5 136.1 22.5 136.2 22.4 136.1 22.4 136.2
2005-09-28 18:00:00 22.4 135.6 22.4 135.6 22.4 135.6 22.4 135.6
2005-09-29 00:00:00 22.4 135.1 22.4 135.2 22.4 135.2 22.4 135.2
2005-09-29 06:00:00 22.4 134.6 22.4 134.7 22.4 134.7 22.4 134.6
2005-09-29 12:00:00 22.4 133.9 22.3 133.9 22.3 133.9 22.3 133.9
2005-09-29 18:00:00 22.2 133.0 22.2 133.0 22.2 133.0 22.2 132.8
2005-09-30 00:00:00 22.0 132.1 22.0 132.1 22.0 132.1 22.1 132.1
2005-09-30 06:00:00 22.1 131.0 22.1 131.0 22.0 131.0 22.0 131.0
2005-09-30 12:00:00 22.2 129.9 22.2 130.0 22.2 130.0 22.1 129.9
2005-09-30 18:00:00 22.3 128.6 22.4 128.5 22.4 128.5 22.3 128.4
2005-10-01 00:00:00 22.4 127.0 22.5 126.9 22.5 127.0 22.5 126.9
jtwc_wp tokyo cma hko
2005-10-01 06:00:00 22.8 125.4 22.8 125.3 22.8 125.4 22.8 125.4
2005-10-01 12:00:00 23.1 123.8 23.1 123.9 23.1 123.9 23.1 123.9
2005-10-01 18:00:00 23.5 122.4 23.5 122.5 23.5 122.5 23.4 122.4
2005-10-02 00:00:00 23.8 121.0 24.3 120.9 23.8 120.6 24.0 120.7
2005-10-02 06:00:00 24.1 119.7 24.3 119.8 24.0 119.7 24.1 119.7
2005-10-02 12:00:00 24.4 118.8 24.4 118.7 24.2 118.7 24.4 118.8
2005-10-02 18:00:00 24.9 117.8 24.8 117.8 24.7 117.6 24.7 117.7
2005-10-03 00:00:00 25.5 116.6 25.5 116.7 25.1 116.7 25.3 116.7
2005-10-03 06:00:00 26.0 115.7 26.0 115.5 26.0 115.6
2005-10-03 12:00:00 26.5 115.3
2005-10-03 18:00:00 27.1 115.3

top of pageTrack Data:Intensity

jtwc_wp tokyo cma hko
Date Wind Pres Wind Pres Wind Pres Wind Pres
2005-09-25 00:00:00 15. 1006.
2005-09-25 06:00:00 20. 1004. 1002. 23. 1002.
2005-09-25 12:00:00 20. 1003. 1002. 23. 1002.
2005-09-25 18:00:00 30. 1000. 1002. 29. 1000.
2005-09-26 00:00:00 30. 1000. 35. 1000. 35. 996. 30. 998.
2005-09-26 06:00:00 35. 997. 40. 996. 39. 992. 35. 995.
2005-09-26 12:00:00 45. 991. 45. 992. 45. 990. 40. 990.
2005-09-26 18:00:00 60. 980. 55. 980. 54. 985. 50. 980.
2005-09-27 00:00:00 70. 972. 65. 970. 68. 970. 60. 970.
2005-09-27 06:00:00 85. 958. 70. 960. 68. 970. 70. 960.
2005-09-27 12:00:00 90. 954. 75. 955. 78. 960. 75. 955.
2005-09-27 18:00:00 100. 944. 80. 950. 87. 950. 80. 950.
2005-09-28 00:00:00 110. 933. 85. 945. 87. 950. 85. 945.
2005-09-28 06:00:00 120. 922. 90. 940. 97. 940. 90. 940.
2005-09-28 12:00:00 125. 916. 90. 940. 97. 940. 95. 935.
2005-09-28 18:00:00 125. 916. 90. 940. 97. 940. 95. 935.
2005-09-29 00:00:00 125. 916. 90. 940. 97. 940. 95. 935.
2005-09-29 06:00:00 125. 916. 90. 940. 97. 940. 100. 930.
2005-09-29 12:00:00 125. 916. 90. 940. 97. 940. 105. 925.
2005-09-29 18:00:00 125. 916. 90. 940. 97. 940. 105. 925.
2005-09-30 00:00:00 125. 916. 80. 950. 87. 950. 100. 930.
2005-09-30 06:00:00 120. 922. 80. 950. 87. 950. 100. 930.
2005-09-30 12:00:00 120. 922. 85. 940. 87. 950. 105. 925.
2005-09-30 18:00:00 120. 922. 90. 935. 97. 940. 110. 920.
2005-10-01 00:00:00 120. 922. 95. 930. 107. 935. 115. 915.
jtwc_wp tokyo cma hko
2005-10-01 06:00:00 125. 916. 95. 930. 107. 935. 115. 915.
2005-10-01 12:00:00 120. 922. 95. 930. 107. 935. 110. 920.
2005-10-01 18:00:00 115. 927. 90. 935. 97. 940. 105. 925.
2005-10-02 00:00:00 95. 949. 70. 965. 78. 960. 95. 935.
2005-10-02 06:00:00 90. 954. 55. 980. 78. 960. 80. 950.
2005-10-02 12:00:00 80. 963. 45. 990. 68. 970. 65. 965.
2005-10-02 18:00:00 55. 984. 35. 998. 45. 990. 50. 980.
2005-10-03 00:00:00 45. 991. 1000. 29. 1000. 30. 998.
2005-10-03 06:00:00 35. 997. 1004. 23. 1006.
2005-10-03 12:00:00 30. 1000.
2005-10-03 18:00:00 20. 1004.

top of page Links to source data

Source Source file Format
jtwc_wp bwp192005.txt ATCF
tokyo bst_all.txt:Line=55205:LONGWANG:519 JMA text table
cma CH2005BST.txt:Storm=19:Longwang CMA text table
hko tc-besttrack-data.txt:Line=31704:LONGWANG HKO Text table